Time;durP1;ratioP1;P1;durP2;ratioP2;P2;SDS_P1;SDS_P2;PMS_P1;PMS_P2;Temp;Humidity;BMP_temperature;BMP_pressure;BME280_temperature;BME280_humidity;BME280_pressure;Samples;Min_cycle;Max_cycle;Signal;HPM_P1;HPM_P2
2022/03/22 00:00:46;;;;;;;9.52;7.40;;;7.90;67.50;;;;;;5095516;27;20024;-65
2022/03/22 00:03:11;;;;;;;12.02;8.32;;;7.90;67.50;;;;;;5100899;28;20088;-65
2022/03/22 00:05:42;;;;;;;13.88;8.73;;;7.80;67.40;;;;;;5096435;28;20033;-65
2022/03/22 00:08:09;;;;;;;10.90;8.17;;;7.80;67.40;;;;;;5078801;28;20115;-65
2022/03/22 00:10:36;;;;;;;11.82;8.95;;;7.80;67.50;;;;;;5100264;28;20272;-65
2022/03/22 00:13:04;;;;;;;9.27;7.82;;;7.80;67.70;;;;;;5112722;28;20023;-65
2022/03/22 00:15:30;;;;;;;10.25;7.90;;;7.80;67.70;;;;;;5086439;28;20020;-65
2022/03/22 00:17:56;;;;;;;12.82;8.18;;;7.80;67.80;;;;;;5079401;28;20406;-65
2022/03/22 00:20:23;;;;;;;13.27;8.40;;;7.70;67.70;;;;;;5088682;28;20025;-65
2022/03/22 00:22:49;;;;;;;9.82;8.18;;;7.70;67.70;;;;;;5081709;28;20029;-65
2022/03/22 00:25:16;;;;;;;12.20;7.75;;;7.70;67.80;;;;;;5087468;28;20028;-65
2022/03/22 00:27:52;;;;;;;10.63;8.07;;;7.70;67.90;;;;;;5102377;28;20039;-65
2022/03/22 00:30:33;;;;;;;11.18;8.75;;;7.70;67.90;;;;;;5101055;28;20032;-65
2022/03/22 00:33:01;;;;;;;11.63;8.60;;;7.70;67.90;;;;;;5093179;28;20028;-65
2022/03/22 00:35:29;;;;;;;12.32;8.40;;;7.60;68.00;;;;;;5088577;28;20399;-65
2022/03/22 00:37:58;;;;;;;11.18;8.40;;;7.60;68.30;;;;;;5088074;28;20066;-65
2022/03/22 00:40:28;;;;;;;13.13;8.35;;;7.60;68.30;;;;;;5098712;28;20106;-65
2022/03/22 00:42:54;;;;;;;13.90;8.95;;;7.60;68.30;;;;;;5081483;28;20113;-65
2022/03/22 00:45:30;;;;;;;12.00;8.73;;;7.60;68.40;;;;;;5083124;28;20065;-65
2022/03/22 00:47:56;;;;;;;11.70;7.97;;;7.50;68.20;;;;;;5079818;28;20119;-65
2022/03/22 00:50:28;;;;;;;11.70;8.13;;;7.50;68.50;;;;;;5097999;28;20028;-65
2022/03/22 00:52:55;;;;;;;13.90;8.50;;;7.50;68.50;;;;;;5082537;28;20381;-65
2022/03/22 00:55:24;;;;;;;10.93;8.88;;;7.50;68.40;;;;;;5095710;28;20189;-65
2022/03/22 00:57:51;;;;;;;12.48;8.23;;;7.50;68.30;;;;;;5090439;28;20472;-65
2022/03/22 01:00:18;;;;;;;15.02;8.40;;;7.50;68.40;;;;;;5099220;28;20028;-65
2022/03/22 01:02:49;;;;;;;12.15;7.70;;;7.50;68.20;;;;;;5080716;28;20051;-65
2022/03/22 01:05:17;;;;;;;9.57;7.47;;;7.50;68.20;;;;;;5088386;28;20487;-65
2022/03/22 01:07:45;;;;;;;10.90;7.63;;;7.50;68.20;;;;;;5076057;28;20495;-62
2022/03/22 01:10:12;;;;;;;10.40;7.78;;;7.40;68.00;;;;;;5091191;28;20024;-65
2022/03/22 01:12:40;;;;;;;13.27;8.02;;;7.40;68.00;;;;;;5081233;28;20361;-65
2022/03/22 01:15:12;;;;;;;12.98;7.70;;;7.40;68.00;;;;;;5105906;28;20051;-65
2022/03/22 01:17:38;;;;;;;9.90;7.05;;;7.50;68.00;;;;;;5084407;28;20100;-65
2022/03/22 01:20:06;;;;;;;11.73;7.57;;;7.40;67.90;;;;;;5098477;28;20099;-65
2022/03/22 01:22:32;;;;;;;11.30;7.40;;;7.40;67.90;;;;;;5102775;28;20051;-65
2022/03/22 01:24:59;;;;;;;10.15;7.00;;;7.40;68.00;;;;;;5106032;28;20035;-65
2022/03/22 01:27:26;;;;;;;11.55;8.00;;;7.40;68.00;;;;;;5102090;28;20067;-65
2022/03/22 01:29:52;;;;;;;11.10;7.47;;;7.40;68.00;;;;;;5104329;28;20027;-65
2022/03/22 01:32:17;;;;;;;9.88;6.90;;;7.40;68.00;;;;;;5093958;28;20021;-65
2022/03/22 01:34:43;;;;;;;12.48;7.63;;;7.40;68.00;;;;;;5085262;28;20099;-65
2022/03/22 01:37:10;;;;;;;12.75;8.43;;;7.30;68.00;;;;;;5076199;28;20435;-65
2022/03/22 01:39:36;;;;;;;12.68;7.55;;;7.30;68.10;;;;;;5087637;28;20035;-65
2022/03/22 01:42:03;;;;;;;9.82;7.28;;;7.30;68.20;;;;;;5096870;28;20036;-65
2022/03/22 01:44:29;;;;;;;10.52;7.28;;;7.30;68.30;;;;;;5093006;28;20110;-65
2022/03/22 01:47:03;;;;;;;10.43;6.95;;;7.30;68.40;;;;;;5093884;28;20114;-65
2022/03/22 01:49:30;;;;;;;10.45;7.88;;;7.20;68.40;;;;;;5099124;28;20028;-65
2022/03/22 01:51:56;;;;;;;12.20;7.97;;;7.20;68.50;;;;;;5099691;28;20028;-65
2022/03/22 01:54:22;;;;;;;10.38;7.72;;;7.20;68.50;;;;;;5084680;28;20023;-65
2022/03/22 01:56:49;;;;;;;12.07;7.93;;;7.10;68.50;;;;;;5094097;28;20093;-65
2022/03/22 01:59:15;;;;;;;12.40;7.65;;;7.10;68.70;;;;;;5084926;28;20024;-65
2022/03/22 02:07:14;;;;;;;9.75;7.40;;;7.10;68.90;;;;;;5089469;28;20030;-64
2022/03/22 02:09:41;;;;;;;9.32;7.05;;;7.00;69.00;;;;;;5082867;28;20028;-65
2022/03/22 02:12:07;;;;;;;10.93;7.38;;;7.00;69.00;;;;;;5107867;28;20028;-65
2022/03/22 02:14:33;;;;;;;11.75;8.18;;;7.00;69.20;;;;;;5096952;28;20047;-65
2022/03/22 02:17:05;;;;;;;11.75;7.63;;;7.00;69.30;;;;;;5110547;28;20086;-65
2022/03/22 02:19:31;;;;;;;11.80;7.97;;;7.00;69.60;;;;;;5092882;28;20078;-65
2022/03/22 02:22:01;;;;;;;11.20;7.55;;;6.90;69.60;;;;;;5102568;28;20038;-64
2022/03/22 02:24:27;;;;;;;11.40;7.60;;;6.90;69.60;;;;;;5095490;28;20024;-65
2022/03/22 02:26:53;;;;;;;9.73;7.47;;;6.90;69.50;;;;;;5086261;28;20024;-64
2022/03/22 02:29:19;;;;;;;11.00;7.45;;;6.90;69.30;;;;;;5099375;28;20034;-65
2022/03/22 02:31:45;;;;;;;9.40;7.20;;;6.90;69.20;;;;;;5088701;28;20020;-65
2022/03/22 02:34:11;;;;;;;10.27;7.68;;;6.90;69.10;;;;;;5098276;28;20027;-65
2022/03/22 02:36:36;;;;;;;14.45;7.88;;;6.90;69.20;;;;;;5093264;28;20040;-64
2022/03/22 02:39:02;;;;;;;12.23;7.88;;;6.80;69.00;;;;;;5087540;28;20059;-64
2022/03/22 02:41:28;;;;;;;12.40;7.88;;;6.90;69.00;;;;;;5110776;28;20020;-64
2022/03/22 02:43:54;;;;;;;10.70;7.90;;;6.80;68.90;;;;;;5089325;28;20153;-64
2022/03/22 02:46:21;;;;;;;11.40;8.05;;;6.80;68.90;;;;;;5090820;28;20091;-65
2022/03/22 02:48:46;;;;;;;14.60;8.05;;;6.80;69.00;;;;;;5085710;28;20028;-65
2022/03/22 02:51:13;;;;;;;10.75;7.57;;;6.80;69.60;;;;;;5103769;28;20820;-65
2022/03/22 02:53:39;;;;;;;8.45;6.57;;;6.80;68.90;;;;;;5085980;28;20602;-64
2022/03/22 02:56:05;;;;;;;10.55;7.43;;;6.80;68.90;;;;;;5094245;28;20024;-64
2022/03/22 02:58:33;;;;;;;11.63;7.70;;;6.80;68.90;;;;;;5108191;28;20450;-65
2022/03/22 03:00:59;;;;;;;11.10;7.97;;;6.80;69.00;;;;;;5101164;28;20402;-64
2022/03/22 03:03:24;;;;;;;11.50;7.25;;;6.80;69.10;;;;;;5104912;28;20024;-64
2022/03/22 03:05:50;;;;;;;11.60;7.80;;;6.70;69.10;;;;;;5113978;28;20080;-64
2022/03/22 03:08:16;;;;;;;9.27;7.22;;;6.70;69.30;;;;;;5085458;28;20028;-64
2022/03/22 03:10:43;;;;;;;10.30;7.95;;;6.70;69.40;;;;;;5109302;28;20061;-65
2022/03/22 03:13:09;;;;;;;11.38;8.65;;;6.70;69.50;;;;;;5101052;28;20024;-65
2022/03/22 03:15:34;;;;;;;11.95;7.88;;;6.60;69.40;;;;;;5102964;28;20034;-64
2022/03/22 03:18:00;;;;;;;11.25;8.45;;;6.60;69.50;;;;;;5096027;28;20026;-65
2022/03/22 03:20:27;;;;;;;11.23;8.07;;;6.60;69.60;;;;;;5106166;28;20035;-65
2022/03/22 03:22:52;;;;;;;10.70;8.88;;;6.60;69.60;;;;;;5092570;28;20111;-65
2022/03/22 03:25:18;;;;;;;10.40;7.88;;;6.50;69.50;;;;;;5086346;28;20111;-65
2022/03/22 03:27:45;;;;;;;11.00;8.40;;;6.50;69.60;;;;;;5082705;28;20033;-65
2022/03/22 03:30:11;;;;;;;12.25;8.93;;;6.40;69.40;;;;;;5077148;28;20016;-64
2022/03/22 03:32:36;;;;;;;12.27;8.38;;;6.40;69.50;;;;;;5089036;28;20020;-64
2022/03/22 03:35:03;;;;;;;10.18;7.95;;;6.40;69.40;;;;;;5102402;28;20020;-64
2022/03/22 03:37:36;;;;;;;13.00;8.57;;;6.30;69.40;;;;;;5099190;28;20051;-65
2022/03/22 03:40:05;;;;;;;10.95;8.15;;;6.30;69.60;;;;;;5081530;28;20409;-64
2022/03/22 03:42:31;;;;;;;11.15;7.32;;;6.30;69.70;;;;;;5097250;28;20031;-64
2022/03/22 03:47:41;;;;;;;10.52;7.90;;;6.20;69.70;;;;;;5104673;28;20073;-65
2022/03/22 03:50:07;;;;;;;14.13;8.40;;;6.20;69.80;;;;;;5101281;28;20024;-64
2022/03/22 03:52:35;;;;;;;10.93;8.35;;;6.20;69.80;;;;;;5096080;28;20475;-65
2022/03/22 03:55:04;;;;;;;11.95;8.73;;;6.20;69.80;;;;;;5102629;28;20023;-64
2022/03/22 03:57:30;;;;;;;13.00;7.88;;;6.20;70.00;;;;;;5101842;28;20032;-65
2022/03/22 03:59:56;;;;;;;11.15;8.23;;;6.20;69.90;;;;;;5096340;28;20036;-65
2022/03/22 04:02:22;;;;;;;12.52;8.43;;;6.20;69.90;;;;;;5081083;28;20029;-65
2022/03/22 04:04:51;;;;;;;14.23;9.10;;;6.20;70.00;;;;;;5080852;28;20047;-65
2022/03/22 04:07:19;;;;;;;11.25;8.20;;;6.20;70.00;;;;;;5092853;28;20116;-64
2022/03/22 04:09:45;;;;;;;14.68;9.52;;;6.20;69.90;;;;;;5080783;28;20470;-64
2022/03/22 04:12:12;;;;;;;11.98;8.70;;;6.20;69.90;;;;;;5092026;28;20055;-64
2022/03/22 04:14:38;;;;;;;12.68;9.10;;;6.20;69.80;;;;;;5094501;28;20807;-64
2022/03/22 04:17:04;;;;;;;11.88;8.45;;;6.30;69.80;;;;;;5106214;28;20127;-64
2022/03/22 04:19:31;;;;;;;14.00;9.73;;;6.20;69.60;;;;;;5089980;28;20103;-64
2022/03/22 04:21:57;;;;;;;12.80;8.85;;;6.20;69.60;;;;;;5079892;28;20490;-64
2022/03/22 04:24:22;;;;;;;13.15;8.32;;;6.30;69.60;;;;;;5094140;28;20027;-65
2022/03/22 04:26:48;;;;;;;13.65;8.48;;;6.30;69.40;;;;;;5086241;28;20032;-64
2022/03/22 04:34:46;;;;;;;11.95;7.97;;;6.40;69.30;;;;;;5080896;28;20043;-64
2022/03/22 04:37:14;;;;;;;12.25;8.15;;;6.40;69.20;;;;;;5084921;28;20048;-64
2022/03/22 04:39:42;;;;;;;11.77;8.20;;;6.50;69.20;;;;;;5102622;28;20088;-65
2022/03/22 04:42:08;;;;;;;11.35;7.90;;;6.60;69.00;;;;;;5092791;28;20035;-64
2022/03/22 04:44:35;;;;;;;12.52;7.75;;;6.60;69.00;;;;;;5084912;28;20036;-65
2022/03/22 04:47:01;;;;;;;11.50;8.02;;;6.70;68.90;;;;;;5101680;28;20383;-65
2022/03/22 04:49:28;;;;;;;12.95;7.55;;;6.80;68.80;;;;;;5097828;28;20027;-64
2022/03/22 04:57:24;;;;;;;11.40;6.38;;;7.10;68.30;;;;;;5084934;28;20039;-65
2022/03/22 04:59:50;;;;;;;12.30;8.10;;;7.20;67.80;;;;;;5101604;28;20035;-65
2022/03/22 05:02:15;;;;;;;10.13;6.80;;;7.30;67.60;;;;;;5089297;28;20385;-65
2022/03/22 05:04:42;;;;;;;12.52;7.93;;;7.40;67.20;;;;;;5095959;28;20494;-65
2022/03/22 05:07:07;;;;;;;10.32;7.70;;;7.50;67.10;;;;;;5105958;28;20475;-64
2022/03/22 05:09:33;;;;;;;12.75;7.10;;;7.70;67.00;;;;;;5077418;28;20127;-65
2022/03/22 05:12:00;;;;;;;11.35;7.25;;;7.90;66.80;;;;;;5087470;28;20485;-64
2022/03/22 05:14:26;;;;;;;11.30;7.53;;;8.10;66.60;;;;;;5105515;28;20051;-65
2022/03/22 05:16:56;;;;;;;12.43;7.63;;;8.30;66.30;;;;;;5112091;28;20515;-64
2022/03/22 05:19:23;;;;;;;13.43;6.75;;;8.50;66.00;;;;;;5101916;28;20504;-64
2022/03/22 05:21:48;;;;;;;9.20;7.05;;;8.80;65.30;;;;;;5086070;28;20108;-64
2022/03/22 05:24:14;;;;;;;9.45;7.45;;;9.10;64.60;;;;;;5089556;28;20523;-64
2022/03/22 05:26:40;;;;;;;9.48;7.22;;;9.40;63.90;;;;;;5085182;28;20029;-65
2022/03/22 05:29:06;;;;;;;10.00;6.90;;;9.70;63.30;;;;;;5091946;28;20103;-64
2022/03/22 05:31:33;;;;;;;9.60;7.00;;;10.00;62.50;;;;;;5096097;28;20921;-64
2022/03/22 05:33:59;;;;;;;10.25;7.10;;;10.30;61.70;;;;;;5094451;28;20020;-64
2022/03/22 05:36:25;;;;;;;11.23;7.22;;;10.60;61.10;;;;;;5104195;28;20039;-64
2022/03/22 05:38:52;;;;;;;12.98;7.93;;;10.90;60.40;;;;;;5090900;28;20377;-65
2022/03/22 05:41:18;;;;;;;10.30;8.30;;;11.10;59.50;;;;;;5094986;28;20092;-65
2022/03/22 05:43:44;;;;;;;10.07;7.78;;;11.30;59.00;;;;;;5093404;28;20089;-62
2022/03/22 05:46:11;;;;;;;9.35;6.50;;;11.30;58.70;;;;;;5100195;28;20023;-65
2022/03/22 05:48:39;;;;;;;9.18;6.47;;;11.40;58.30;;;;;;5101766;28;20050;-64
2022/03/22 05:51:06;;;;;;;9.13;6.55;;;11.40;58.00;;;;;;5098318;27;20078;-65
2022/03/22 05:53:32;;;;;;;8.48;6.38;;;11.30;57.70;;;;;;5104579;28;20027;-64
2022/03/22 05:55:57;;;;;;;11.98;6.68;;;11.30;57.60;;;;;;5102044;28;20031;-64
2022/03/22 05:58:23;;;;;;;10.55;6.78;;;11.20;57.80;;;;;;5091281;28;20476;-64
2022/03/22 06:00:49;;;;;;;8.23;7.00;;;11.40;57.80;;;;;;5076753;28;20029;-64
2022/03/22 06:03:15;;;;;;;9.90;7.07;;;11.70;57.30;;;;;;5102310;28;20034;-64
2022/03/22 06:05:42;;;;;;;8.82;5.68;;;12.10;56.80;;;;;;5115082;28;20027;-64
2022/03/22 06:08:08;;;;;;;8.05;5.80;;;12.40;56.20;;;;;;5108124;28;20463;-63
2022/03/22 06:10:34;;;;;;;9.50;6.30;;;12.80;55.70;;;;;;5092232;28;20077;-63
2022/03/22 06:13:00;;;;;;;12.15;7.13;;;13.20;55.00;;;;;;5080671;28;20020;-62
2022/03/22 06:15:29;;;;;;;10.15;6.78;;;13.70;54.40;;;;;;5079916;28;20021;-63
2022/03/22 06:18:03;;;;;;;10.57;6.07;;;14.20;53.20;;;;;;5083950;28;20043;-63
2022/03/22 06:20:41;;;;;;;9.25;6.32;;;14.60;51.90;;;;;;5080235;28;20032;-63
2022/03/22 06:23:08;;;;;;;9.07;6.35;;;14.90;50.90;;;;;;5083612;28;20059;-63
2022/03/22 06:25:37;;;;;;;10.65;6.25;;;14.90;50.50;;;;;;5081077;28;20487;-64
2022/03/22 06:28:04;;;;;;;9.52;6.70;;;14.60;50.40;;;;;;5079358;28;20518;-64
2022/03/22 06:30:31;;;;;;;10.00;6.30;;;14.20;50.70;;;;;;5082102;28;20563;-64
2022/03/22 06:32:59;;;;;;;10.45;5.93;;;13.70;51.30;;;;;;5080853;28;20461;-65
2022/03/22 06:35:29;;;;;;;10.07;6.38;;;13.20;52.00;;;;;;5083960;28;20016;-65
2022/03/22 06:37:56;;;;;;;11.23;6.55;;;12.70;52.70;;;;;;5079230;28;20043;-65
2022/03/22 06:40:28;;;;;;;8.90;6.82;;;12.30;53.40;;;;;;5082669;28;20093;-64
2022/03/22 06:42:58;;;;;;;8.65;6.30;;;12.00;54.30;;;;;;5077196;28;20028;-65
2022/03/22 06:45:24;;;;;;;9.35;6.03;;;11.70;54.80;;;;;;5085011;28;20035;-65
2022/03/22 06:47:50;;;;;;;8.88;6.28;;;11.50;55.20;;;;;;5089891;28;20064;-62
2022/03/22 06:50:18;;;;;;;8.05;6.25;;;11.30;55.50;;;;;;5092001;28;20058;-64
2022/03/22 06:52:44;;;;;;;10.07;6.28;;;11.10;55.80;;;;;;5082725;28;20028;-65
2022/03/22 06:55:12;;;;;;;8.32;6.15;;;11.00;56.10;;;;;;5085977;28;20092;-65
2022/03/22 06:57:38;;;;;;;8.40;6.38;;;10.90;56.10;;;;;;5079676;28;20046;-65
2022/03/22 07:00:10;;;;;;;7.82;6.18;;;10.80;56.50;;;;;;5081369;28;20024;-65
2022/03/22 07:02:38;;;;;;;11.63;6.40;;;10.70;56.60;;;;;;5081778;28;20036;-65
2022/03/22 07:05:04;;;;;;;9.07;6.47;;;10.60;56.70;;;;;;5076339;28;20500;-65
2022/03/22 07:07:30;;;;;;;8.77;6.38;;;10.50;57.00;;;;;;5082285;28;20020;-64
2022/03/22 07:09:56;;;;;;;12.20;6.25;;;10.50;57.00;;;;;;5080835;28;20028;-64
2022/03/22 07:12:21;;;;;;;9.52;6.28;;;10.50;57.20;;;;;;5079355;28;20392;-65
2022/03/22 07:14:47;;;;;;;9.93;6.30;;;10.40;57.30;;;;;;5080034;28;20020;-65
2022/03/22 07:17:13;;;;;;;9.38;6.45;;;10.40;57.40;;;;;;5081015;28;20035;-63
2022/03/22 07:19:39;;;;;;;9.82;6.13;;;10.40;57.50;;;;;;5082635;28;20028;-63
2022/03/22 07:22:06;;;;;;;9.35;6.55;;;10.30;57.40;;;;;;5079398;28;20032;-63
2022/03/22 07:24:31;;;;;;;11.65;6.47;;;10.30;57.40;;;;;;5084035;28;20035;-63
2022/03/22 07:26:57;;;;;;;10.32;6.20;;;10.30;57.50;;;;;;5077802;28;20024;-63
2022/03/22 07:29:23;;;;;;;9.10;6.55;;;10.30;57.60;;;;;;5084643;28;20016;-63
2022/03/22 07:31:49;;;;;;;8.88;5.82;;;10.30;57.60;;;;;;5087932;28;20062;-63
2022/03/22 07:34:17;;;;;;;10.52;6.20;;;10.30;57.50;;;;;;5086274;28;20094;-63
2022/03/22 07:36:43;;;;;;;10.60;6.70;;;10.30;57.40;;;;;;5092079;28;20518;-63
2022/03/22 07:39:11;;;;;;;9.50;6.90;;;10.30;57.50;;;;;;5072651;28;20537;-63
2022/03/22 07:41:38;;;;;;;11.20;6.82;;;10.30;57.50;;;;;;5077841;28;20028;-63
2022/03/22 07:44:06;;;;;;;9.23;5.88;;;10.30;57.70;;;;;;5084811;28;20031;-63
2022/03/22 07:46:33;;;;;;;8.23;5.72;;;10.40;57.50;;;;;;5082466;28;20013;-63
2022/03/22 07:52:58;;;;;;;10.77;5.72;;;10.40;57.50;;;;;;5075638;28;20028;-63
2022/03/22 07:54:30;;;;;;;10.18;6.03;;;10.40;57.30;;;;;;5076563;28;20111;-63
2022/03/22 07:56:55;;;;;;;11.75;6.50;;;10.40;57.20;;;;;;5075698;28;21537;-63
2022/03/22 07:59:24;;;;;;;8.63;5.93;;;10.40;57.20;;;;;;5081728;28;20024;-63
2022/03/22 08:01:50;;;;;;;10.02;5.88;;;10.50;57.10;;;;;;5073557;28;20033;-62
2022/03/22 08:04:16;;;;;;;9.60;5.90;;;10.50;57.20;;;;;;5080721;28;20039;-61
2022/03/22 08:06:41;;;;;;;9.68;6.68;;;10.50;57.20;;;;;;5083508;28;20024;-62
2022/03/22 08:09:07;;;;;;;10.90;6.45;;;10.60;57.20;;;;;;5080557;28;20038;-62
2022/03/22 08:11:33;;;;;;;10.50;5.90;;;10.60;57.00;;;;;;5073951;28;20525;-62
2022/03/22 08:14:00;;;;;;;9.68;5.85;;;10.60;57.20;;;;;;5080413;28;20020;-62
2022/03/22 08:16:26;;;;;;;8.80;5.55;;;10.70;57.20;;;;;;5080718;28;20037;-62
2022/03/22 08:18:52;;;;;;;10.45;6.55;;;10.70;57.10;;;;;;5084713;28;20036;-61
2022/03/22 08:21:18;;;;;;;8.15;5.55;;;10.70;57.00;;;;;;5083123;28;20032;-62
2022/03/22 08:23:44;;;;;;;9.40;5.68;;;10.70;56.90;;;;;;5083005;28;20388;-63
2022/03/22 08:26:10;;;;;;;8.85;5.47;;;10.70;56.50;;;;;;5078176;28;20115;-62
2022/03/22 08:28:36;;;;;;;10.80;6.00;;;10.70;56.30;;;;;;5078732;28;20024;-62
2022/03/22 08:31:02;;;;;;;8.90;5.13;;;10.70;56.60;;;;;;5078317;28;20047;-62
2022/03/22 08:33:28;;;;;;;9.38;5.97;;;10.60;56.40;;;;;;5085089;28;20031;-62
2022/03/22 08:35:54;;;;;;;7.38;5.25;;;10.50;56.50;;;;;;5077433;28;20024;-62
2022/03/22 08:38:20;;;;;;;9.40;5.40;;;10.50;56.60;;;;;;5077605;28;20043;-60
2022/03/22 08:40:50;;;;;;;8.32;5.07;;;10.40;56.70;;;;;;5076247;28;20109;-61
2022/03/22 08:43:16;;;;;;;8.75;5.65;;;10.40;56.90;;;;;;5080195;28;20831;-62
2022/03/22 08:45:42;;;;;;;8.80;5.82;;;10.40;57.00;;;;;;5079039;28;20024;-62
2022/03/22 08:48:09;;;;;;;7.78;5.05;;;10.40;57.20;;;;;;5076546;28;20032;-62
2022/03/22 08:50:39;;;;;;;9.52;5.45;;;10.40;57.20;;;;;;5075794;28;20020;-62
2022/03/22 08:53:06;;;;;;;12.00;5.90;;;10.40;57.10;;;;;;5073980;28;20034;-63
2022/03/22 08:55:32;;;;;;;6.88;5.35;;;10.40;57.10;;;;;;5079335;28;20032;-63
2022/03/22 08:58:04;;;;;;;9.25;5.82;;;10.40;57.00;;;;;;5072086;28;20047;-63
2022/03/22 09:00:32;;;;;;;9.43;6.05;;;10.40;57.00;;;;;;5075648;28;20032;-63
2022/03/22 09:02:58;;;;;;;7.53;5.38;;;10.50;56.90;;;;;;5077040;28;20082;-63
2022/03/22 09:08:08;;;;;;;8.02;5.07;;;10.50;56.80;;;;;;5076783;28;20488;-62
2022/03/22 09:10:35;;;;;;;9.57;5.13;;;10.50;56.70;;;;;;5074440;28;20111;-62
2022/03/22 09:13:01;;;;;;;11.73;5.30;;;10.60;56.60;;;;;;5067296;28;20156;-62
2022/03/22 09:15:28;;;;;;;13.27;6.00;;;10.60;56.70;;;;;;5068929;28;20036;-61
2022/03/22 09:17:55;;;;;;;10.73;5.35;;;10.70;56.80;;;;;;5072103;28;20043;-62
2022/03/22 09:20:23;;;;;;;6.07;4.50;;;10.70;56.60;;;;;;5077030;28;20576;-62
2022/03/22 09:22:51;;;;;;;7.10;5.15;;;10.70;56.70;;;;;;5074812;28;20785;-62
2022/03/22 09:25:18;;;;;;;7.75;5.25;;;10.70;57.00;;;;;;5084764;28;20131;-61
2022/03/22 09:27:44;;;;;;;7.15;4.93;;;10.70;56.90;;;;;;5085153;28;20497;-62
2022/03/22 09:30:12;;;;;;;9.85;5.85;;;10.70;57.10;;;;;;5085264;28;20050;-61
2022/03/22 09:32:39;;;;;;;7.10;5.28;;;10.60;57.20;;;;;;5082723;28;20028;-61
2022/03/22 09:35:07;;;;;;;7.40;4.85;;;10.60;57.30;;;;;;5084085;28;20115;-62
2022/03/22 09:37:38;;;;;;;7.28;4.85;;;10.60;57.50;;;;;;5075968;28;20044;-62
2022/03/22 09:40:04;;;;;;;8.90;5.20;;;10.60;57.60;;;;;;5076227;28;20039;-62
2022/03/22 09:42:31;;;;;;;8.25;5.40;;;10.50;57.40;;;;;;5080017;28;20032;-63
2022/03/22 09:45:00;;;;;;;10.18;6.20;;;10.50;57.50;;;;;;5080357;28;20075;-62
2022/03/22 09:47:29;;;;;;;9.50;5.80;;;10.50;57.40;;;;;;5075739;28;20801;-62
2022/03/22 09:49:58;;;;;;;10.90;5.53;;;10.50;57.40;;;;;;5081134;28;20028;-63
2022/03/22 09:52:24;;;;;;;8.85;5.05;;;10.60;57.40;;;;;;5072559;28;20111;-62
2022/03/22 09:54:50;;;;;;;7.57;4.80;;;10.60;57.30;;;;;;5074821;28;20547;-63
2022/03/22 09:57:16;;;;;;;9.05;4.70;;;10.70;57.10;;;;;;5074927;28;20035;-62
2022/03/22 09:59:42;;;;;;;7.28;4.57;;;10.70;56.90;;;;;;5073594;28;20034;-63
2022/03/22 10:02:09;;;;;;;11.27;5.50;;;10.80;56.60;;;;;;5077556;28;20036;-65
2022/03/22 10:04:37;;;;;;;12.40;5.78;;;10.80;56.50;;;;;;5070138;28;20056;-65
2022/03/22 10:07:05;;;;;;;9.10;5.75;;;10.80;56.50;;;;;;5078355;28;20609;-65
2022/03/22 10:09:33;;;;;;;7.95;4.80;;;10.80;56.60;;;;;;5079113;28;20023;-64
2022/03/22 10:11:59;;;;;;;11.55;5.65;;;10.80;56.70;;;;;;5084642;28;20070;-65
2022/03/22 10:14:41;;;;;;;9.90;5.40;;;10.80;56.40;;;;;;5073969;28;20031;-65
2022/03/22 10:17:15;;;;;;;9.70;5.40;;;10.90;56.20;;;;;;5079093;28;20020;-65
2022/03/22 10:19:47;;;;;;;9.98;5.50;;;10.90;56.30;;;;;;5074167;28;20032;-64
2022/03/22 10:22:13;;;;;;;11.05;6.13;;;10.90;56.10;;;;;;5073980;28;20111;-65
2022/03/22 10:24:55;;;;;;;9.18;5.75;;;10.90;56.00;;;;;;5073720;28;20028;-65
2022/03/22 10:27:36;;;;;;;8.10;5.20;;;10.90;55.90;;;;;;5071904;28;20032;-64
2022/03/22 10:30:05;;;;;;;9.07;5.28;;;11.00;56.40;;;;;;5078181;28;20028;-65
2022/03/22 10:32:39;;;;;;;8.88;5.03;;;11.00;55.70;;;;;;5082302;28;20039;-65
2022/03/22 10:35:16;;;;;;;9.48;5.15;;;11.00;55.60;;;;;;5079746;28;20032;-64
2022/03/22 10:37:49;;;;;;;8.43;4.80;;;11.10;55.50;;;;;;5071702;28;20121;-64
2022/03/22 10:40:31;;;;;;;11.05;5.10;;;11.10;55.40;;;;;;5076013;28;20054;-64
2022/03/22 10:42:59;;;;;;;9.20;4.97;;;11.10;55.30;;;;;;5066185;28;20028;-68
2022/03/22 10:45:30;;;;;;;10.38;5.32;;;11.20;55.30;;;;;;5069112;28;20121;-65
2022/03/22 10:47:57;;;;;;;8.00;5.20;;;11.20;55.00;;;;;;5072249;28;20034;-65
2022/03/22 10:50:23;;;;;;;7.78;5.10;;;11.20;55.10;;;;;;5073546;28;20823;-64
2022/03/22 10:52:57;;;;;;;7.07;4.88;;;11.20;55.00;;;;;;5073239;28;20028;-64
2022/03/22 10:55:27;;;;;;;10.82;5.18;;;11.30;54.90;;;;;;5071614;28;20052;-63
2022/03/22 10:57:56;;;;;;;6.65;4.15;;;11.30;54.90;;;;;;5075492;28;20112;-63
2022/03/22 11:00:24;;;;;;;11.77;5.38;;;11.40;54.70;;;;;;5076620;28;20115;-63
2022/03/22 11:02:53;;;;;;;6.93;4.97;;;11.30;54.60;;;;;;5076240;28;20016;-62
2022/03/22 11:05:20;;;;;;;6.03;4.63;;;11.40;54.60;;;;;;5082942;28;20365;-63
2022/03/22 11:07:51;;;;;;;5.88;3.95;;;11.40;54.50;;;;;;5074142;28;20169;-63
2022/03/22 11:10:30;;;;;;;7.55;4.28;;;11.40;54.40;;;;;;5076499;28;20055;-62
2022/03/22 11:13:00;;;;;;;10.35;4.85;;;11.40;54.20;;;;;;5075334;28;20029;-62
2022/03/22 11:15:28;;;;;;;5.88;4.30;;;11.40;54.10;;;;;;5074287;28;20028;-61
2022/03/22 11:17:55;;;;;;;6.95;4.43;;;11.40;53.90;;;;;;5076247;28;20024;-62
2022/03/22 11:20:24;;;;;;;6.70;4.53;;;11.40;53.80;;;;;;5077784;28;20601;-63
2022/03/22 11:22:54;;;;;;;7.93;4.68;;;11.50;53.70;;;;;;5072877;28;20024;-62
2022/03/22 11:25:35;;;;;;;6.38;4.10;;;11.50;53.50;;;;;;5075021;28;20127;-62
2022/03/22 11:28:09;;;;;;;9.88;4.20;;;11.50;53.30;;;;;;5079384;28;20050;-62
2022/03/22 11:30:37;;;;;;;9.93;4.25;;;11.50;53.30;;;;;;5076792;28;20533;-62
2022/03/22 11:35:57;;;;;;;6.97;4.18;;;11.60;53.00;;;;;;5077633;28;20102;-63
2022/03/22 11:38:56;;;;;;;8.82;5.72;;;11.60;52.70;;;;;;5079104;28;20040;-64
2022/03/22 11:44:34;;;;;;;7.65;4.10;;;11.60;52.60;;;;;;5080585;28;20042;-62
2022/03/22 11:47:07;;;;;;;9.10;3.58;;;11.60;52.40;;;;;;5076800;28;20040;-62
2022/03/22 11:49:53;;;;;;;5.93;3.78;;;11.70;52.40;;;;;;5077966;28;20040;-62
2022/03/22 11:52:39;;;;;;;7.45;3.63;;;11.70;52.20;;;;;;5082413;28;20119;-62
2022/03/22 11:55:09;;;;;;;5.97;4.20;;;11.70;52.10;;;;;;5077060;28;20529;-62
2022/03/22 11:57:46;;;;;;;8.75;3.88;;;11.70;52.10;;;;;;5082972;28;20047;-62
2022/03/22 12:00:14;;;;;;;7.20;3.65;;;11.70;51.80;;;;;;5070978;28;20041;-62
2022/03/22 12:02:43;;;;;;;7.07;4.25;;;11.80;51.90;;;;;;5081139;28;20027;-62
2022/03/22 12:05:09;;;;;;;6.93;3.70;;;11.80;51.80;;;;;;5077215;28;20062;-62
2022/03/22 12:07:37;;;;;;;7.30;4.40;;;11.80;52.00;;;;;;5071006;28;20226;-62
2022/03/22 12:10:12;;;;;;;6.45;4.68;;;11.80;51.80;;;;;;5063655;28;20638;-62
2022/03/22 12:12:38;;;;;;;7.65;4.25;;;11.80;51.60;;;;;;5077854;28;20020;-62
2022/03/22 12:15:07;;;;;;;7.30;3.95;;;11.80;51.50;;;;;;5073593;28;20107;-62
2022/03/22 12:17:34;;;;;;;8.93;4.07;;;11.80;51.70;;;;;;5079709;28;20446;-62
2022/03/22 12:20:05;;;;;;;8.25;4.25;;;11.90;51.50;;;;;;5081897;28;20646;-63
2022/03/22 12:22:31;;;;;;;7.95;4.20;;;11.90;51.40;;;;;;5084328;28;20712;-63
2022/03/22 12:24:58;;;;;;;6.68;3.85;;;11.90;51.40;;;;;;5078775;28;20036;-62
2022/03/22 12:27:25;;;;;;;7.15;3.90;;;11.90;51.70;;;;;;5077935;28;20365;-63
2022/03/22 12:29:53;;;;;;;5.90;3.53;;;11.90;50.80;;;;;;5071368;28;20020;-63
2022/03/22 12:32:21;;;;;;;6.63;3.70;;;11.90;50.70;;;;;;5069001;28;20112;-63
2022/03/22 12:34:48;;;;;;;10.25;4.00;;;11.90;50.80;;;;;;5073503;28;20454;-62
2022/03/22 12:37:16;;;;;;;5.30;3.30;;;11.90;50.70;;;;;;5077259;28;20139;-63
2022/03/22 12:39:44;;;;;;;6.40;3.80;;;11.90;50.70;;;;;;5073496;28;20020;-62
2022/03/22 12:42:12;;;;;;;7.35;4.00;;;11.90;50.80;;;;;;5065658;28;20059;-62
2022/03/22 12:44:38;;;;;;;7.55;3.92;;;11.90;50.70;;;;;;5074950;28;20032;-62
2022/03/22 12:47:05;;;;;;;8.70;3.70;;;11.90;51.00;;;;;;5070295;28;20106;-63
2022/03/22 12:49:40;;;;;;;5.78;3.50;;;11.90;51.20;;;;;;5072204;28;20111;-63
2022/03/22 12:52:07;;;;;;;7.07;3.53;;;11.90;51.10;;;;;;5080082;28;20875;-63
2022/03/22 12:54:41;;;;;;;9.48;4.20;;;12.00;51.30;;;;;;5077578;28;20064;-63
2022/03/22 12:57:09;;;;;;;5.68;2.92;;;12.00;51.20;;;;;;5075669;28;20032;-63
2022/03/22 12:59:35;;;;;;;5.53;2.85;;;12.00;50.70;;;;;;5074885;28;20064;-63
2022/03/22 13:02:05;;;;;;;6.80;3.15;;;11.90;50.60;;;;;;5073405;28;20070;-63
2022/03/22 13:04:31;;;;;;;8.00;4.28;;;12.00;50.30;;;;;;5076298;28;20407;-63
2022/03/22 13:07:02;;;;;;;5.05;3.22;;;12.00;50.30;;;;;;5080361;28;20035;-63
2022/03/22 13:12:15;;;;;;;4.95;2.75;;;12.00;50.00;;;;;;5080322;28;20356;-63
2022/03/22 13:15:01;;;;;;;6.00;3.50;;;12.00;49.60;;;;;;5078043;28;20573;-63
2022/03/22 13:17:35;;;;;;;7.63;3.70;;;12.00;49.40;;;;;;5068555;28;20084;-63
2022/03/22 13:20:09;;;;;;;5.85;3.20;;;12.10;49.40;;;;;;5073392;28;20032;-63
2022/03/22 13:22:34;;;;;;;6.93;3.25;;;12.10;49.50;;;;;;5069006;28;20043;-63